• Join FlightAware (Why Join?)
  • Login
  • US Flag 
03:01PM EST


 

Airport Tracker/Info


-or-


 

Live Flight TrackerFlight Track Log ✈ DLH423 ✈ 17-Apr-2013 ✈ KBOS - EDDF / FRA

Flight Track Log - Related Links

Times and Time Zones

All times are in EDT time to prevent confusion due to time zone crossing. See the DLH423 flight status page for this flight to view local times or setup timezone preferences in your user account.

Time Position Orientation Groundspeed Altitude Reporting Facility
EDT Latitude Longitude Course Direction KTS MPH feet Rate Location/Type
04:57PM 42.3800 -70.9980 21° North 153 176 600  Level FlightAware
04:57PM 42.3980 -70.9880 22° Northeast 178 205 1,400 1,560 Climbing FlightAware
04:57PM 42.4220 -70.9760 20° North 225 259 1,900 1,320 Climbing FlightAware
04:58PM 42.4400 -70.9620 30° Northeast 248 285 2,400 1,320 Climbing FlightAware
04:58PM 42.4500 -70.9410 57° Northeast 272 313 2,700 1,560 Climbing FlightAware
04:58PM 42.4540 -70.9160 78° East 281 323 3,200 3,120 Climbing FlightAware
04:59PM 42.4580 -70.8710 83° East 279 321 4,800 3,240 Climbing FlightAware
04:59PM 42.4490 -70.8210 104° East 299 344 6,200 2,460 Climbing FlightAware
05:00PM 42.4330 -70.7760 116° Southeast 310 357 7,100 1,920 Climbing FlightAware
05:00PM 42.4140 -70.7230 116° Southeast 315 362 8,000 2,160 Climbing FlightAware
05:01PM 42.3940 -70.6670 116° Southeast 331 381 9,300 2,280 Climbing FlightAware
05:01PM 42.3690 -70.5890 113° Southeast 361 415 10,700 1,860 Climbing FlightAware
05:02PM 42.3490 -70.4960 106° East 408 470 11,800 1,860 Climbing FlightAware
05:03PM 42.3250 -70.3820 106° East 441 507 13,400 2,520 Climbing FlightAware
05:03PM 42.3020 -70.2720 106° East 458 527 15,400 2,880 Climbing FlightAware
05:04PM 42.2780 -70.1600 106° East 474 545 17,300 2,760 Climbing FlightAware
05:05PM 42.2590 -70.0420 102° East 483 556 19,100 2,460 Climbing FlightAware
05:05PM 42.2410 -69.9070 100° East 502 578 20,800 2,100 Climbing FlightAware
05:06PM 42.2500 -69.7690 85° East 499 574 22,300 2,040 Climbing FlightAware
05:07PM 42.2890 -69.6520 66° East 508 585 23,700 2,100 Climbing FlightAware
05:08PM 42.3330 -69.5230 65° Northeast 515 593 25,300 2,160 Climbing FlightAware
05:08PM 42.3740 -69.4030 65° Northeast 523 602 26,800 2,160 Climbing FlightAware
05:09PM 42.4140 -69.2830 66° East 528 608 28,200 1,860 Climbing FlightAware
05:10PM 42.4580 -69.1510 66° East 533 613 29,500 1,980 Climbing FlightAware
05:10PM 42.4880 -69.0630 65° Northeast 528 608 30,700 2,100 Climbing FlightAware
05:11PM 42.5440 -68.8940 66° East 526 605 32,500 1,800 Climbing FlightAware
05:12PM 42.5790 -68.7870 66° East 525 604 33,400 1,500 Climbing FlightAware
05:13PM 42.6360 -68.6140 66° East 525 604 34,900 840 Climbing FlightAware
05:14PM 42.6840 -68.4680 66° East 525 604 35,000 60 Climbing FlightAware
05:14PM 42.7260 -68.3400 66° East 525 604 35,000  Level FlightAware
05:16PM 42.8600 -67.9250 66° East 534 615 35,000  Level FlightAware
05:17PM 42.8990 -67.8010 67° East 538 619 35,000  Level FlightAware
05:18PM 42.9280 -67.7090 67° East 538 619 35,000  Level FlightAware
05:18PM 42.9680 -67.5840 66° East 540 621 35,000  Level FlightAware
05:19PM 43.0280 -67.3910 67° East 544 626 35,000  Level FlightAware
05:20PM 43.0710 -67.2600 66° East 544 626 35,000  Level FlightAware
05:21PM 43.1170 -67.1080 67° East 544 626 35,000  Level FlightAware
05:22PM 43.1730 -66.9370 66° East 540 621 35,000  Level FlightAware
05:23PM 43.2180 -66.8050 65° Northeast 540 621 35,000  Level FlightAware
05:23PM 43.2770 -66.6770 58° Northeast 529 609 35,000  Level FlightAware
05:24PM 43.3440 -66.5070 62° Northeast 525 604 35,000  Level FlightAware
05:25PM 43.4270 -66.2930 62° Northeast 525 604 35,000  Level FlightAware
05:27PM 43.5180 -66.0560 62° Northeast 524 603 35,000  Level FlightAware
05:28PM 43.5960 -65.8500 62° Northeast 526 605 35,000  Level FlightAware
05:29PM 43.6760 -65.6410 62° Northeast 530 610 35,000  Level FlightAware
05:30PM 43.7550 -65.4310 62° Northeast 532 612 35,000  Level FlightAware
05:31PM 43.8350 -65.2160 63° Northeast 536 617 35,000  Level FlightAware
05:33PM 43.9140 -65.0030 63° Northeast 538 619 35,000  Level FlightAware
05:34PM 44.0100 -64.7420 63° Northeast 542 624 35,000  Level FlightAware
05:35PM 44.0830 -64.5410 63° Northeast 543 625 35,000  Level FlightAware
05:36PM 44.1320 -64.4030 64° Northeast 543 625 35,000  Level FlightAware
05:36PM 44.1790 -64.2730 63° Northeast 543 625 35,000  Level FlightAware
05:37PM 44.2470 -64.0840 63° Northeast 543 625 35,000  Level FlightAware
05:38PM 44.2900 -63.9640 63° Northeast 545 627 35,000  Level FlightAware
05:39PM 44.3390 -63.8240 64° Northeast 547 629 35,000  Level FlightAware
05:40PM 44.3890 -63.6820 64° Northeast 544 626 35,000  Level FlightAware
05:40PM 44.4390 -63.5410 64° Northeast 542 624 35,000  Level FlightAware
05:41PM 44.4990 -63.3680 64° Northeast 543 625 35,000  Level FlightAware
05:42PM 44.5370 -63.2600 64° Northeast 544 626 35,000  Level FlightAware
05:43PM 44.5920 -63.1020 64° Northeast 544 626 35,000  Level FlightAware
05:43PM 44.6300 -62.9900 64° Northeast 545 627 35,000  Level FlightAware
05:44PM 44.6770 -62.8550 64° Northeast 545 627 35,000  Level FlightAware
05:45PM 44.7140 -62.7460 64° Northeast 545 627 35,000  Level FlightAware
05:45PM 44.7520 -62.6380 64° Northeast 545 627 35,000  Level FlightAware
05:46PM 44.7900 -62.5290 64° Northeast 545 627 35,000  Level FlightAware
05:47PM 44.8270 -62.4210 64° Northeast 545 627 35,000  Level FlightAware
05:48PM 44.8740 -62.2850 64° Northeast 545 627 35,000  Level FlightAware
05:48PM 44.9120 -62.1760 64° Northeast 545 627 35,000  Level FlightAware
05:49PM 44.9490 -62.0670 64° Northeast 545 627 35,000  Level FlightAware
05:50PM 44.9870 -61.9580 64° Northeast 545 627 35,000  Level FlightAware
05:50PM 45.0240 -61.8490 64° Northeast 545 627 35,000  Level FlightAware
05:51PM 45.0710 -61.7130 64° Northeast 545 627 35,000  Level FlightAware
05:52PM 45.1090 -61.6040 64° Northeast 545 627 35,000  Level FlightAware
05:52PM 45.1460 -61.4950 64° Northeast 545 627 35,000  Level FlightAware
05:54PM 45.2910 -60.9850 68° East 542 624 35,000  Level FlightAware
05:54PM 45.3350 -60.8450 66° East 542 624 35,000  Level FlightAware
05:55PM 45.3780 -60.7120 65° Northeast 542 624 35,000  Level FlightAware
05:56PM 45.4180 -60.5820 66° East 542 624 35,000  Level FlightAware
05:56PM 45.4650 -60.4320 66° East 543 625 35,000  Level FlightAware
05:57PM 45.5040 -60.3050 66° East 544 626 35,000  Level FlightAware
05:58PM 45.5450 -60.1720 66° East 542 624 35,000  Level FlightAware
05:58PM 45.5890 -60.0280 66° East 542 624 35,000  Level FlightAware
05:59PM 45.6290 -59.8970 66° East 542 624 35,000  Level FlightAware
06:00PM 45.6750 -59.7460 66° East 543 625 35,000  Level FlightAware
06:01PM 45.7150 -59.6120 67° East 544 626 35,000  Level FlightAware
06:01PM 45.7580 -59.4690 67° East 547 629 35,000  Level FlightAware
06:02PM 45.7980 -59.3350 67° East 546 628 35,000  Level FlightAware
06:03PM 45.8430 -59.1830 67° East 550 633 35,000  Level FlightAware
06:03PM 45.8840 -59.0450 67° East 551 634 35,000  Level FlightAware
06:04PM 45.9270 -58.9000 67° East 549 632 35,000  Level FlightAware
06:05PM 45.9660 -58.7660 67° East 550 633 35,000  Level FlightAware
06:06PM 46.0110 -58.6110 67° East 551 634 35,000  Level FlightAware
06:06PM 46.0500 -58.4760 67° East 552 635 35,000  Level FlightAware
06:07PM 46.0890 -58.3370 68° East 552 635 35,000  Level FlightAware
06:08PM 46.1310 -58.1890 68° East 553 636 35,000  Level FlightAware
06:08PM 46.1670 -58.0610 68° East 551 634 35,000  Level FlightAware
06:09PM 46.2130 -57.9010 67° East 550 633 35,000  Level FlightAware
06:10PM 46.2570 -57.7430 68° East 550 633 35,000  Level FlightAware
06:11PM 46.2890 -57.6270 68° East 550 633 35,000  Level FlightAware
06:11PM 46.3300 -57.4820 68° East 550 633 35,000  Level FlightAware
06:12PM 46.3620 -57.3650 68° East 550 633 35,000  Level FlightAware
06:13PM 46.3950 -57.2490 68° East 550 633 35,000  Level FlightAware
06:13PM 46.4270 -57.1330 68° East 550 633 35,000  Level FlightAware
06:14PM 46.4930 -56.8810 69° East 555 639 35,000  Level FlightAware
06:15PM 46.5400 -56.7100 68° East 554 638 35,000  Level FlightAware
06:16PM 46.5750 -56.5650 71° East 557 641 35,000  Level FlightAware
06:16PM 46.6220 -56.3760 70° East 557 641 35,000  Level FlightAware
06:17PM 46.6580 -56.2320 70° East 557 641 35,000  Level FlightAware
06:18PM 46.6980 -56.0670 70° East 556 640 35,000  Level FlightAware
06:19PM 46.7350 -55.9190 70° East 556 640 35,000  Level FlightAware
06:19PM 46.7720 -55.7660 71° East 554 638 35,000  Level FlightAware
06:20PM 46.8070 -55.6220 70° East 553 636 35,000  Level FlightAware
06:21PM 46.8390 -55.4890 71° East 557 641 35,000  Level FlightAware
06:21PM 46.8790 -55.3230 71° East 555 639 35,000  Level FlightAware
06:22PM 46.9130 -55.1790 71° East 556 640 35,000  Level FlightAware
06:23PM 46.9500 -55.0240 71° East 556 640 35,000  Level FlightAware
06:23PM 46.9830 -54.8810 71° East 555 639 35,000  Level FlightAware
06:24PM 47.0220 -54.7170 71° East 556 640 35,000  Level FlightAware
06:25PM 47.0550 -54.5750 71° East 559 643 35,000  Level FlightAware
06:26PM 47.0910 -54.4180 71° East 555 639 35,000  Level FlightAware
06:26PM 47.1230 -54.2780 71° East 555 639 35,000  Level FlightAware
06:27PM 47.1550 -54.1350 72° East 554 638 35,000  Level FlightAware
06:28PM 47.1920 -53.9690 72° East 552 635 35,000  Level FlightAware
06:28PM 47.2240 -53.8270 72° East 551 634 35,000  Level FlightAware
06:29PM 47.2550 -53.6860 72° East 551 634 35,000  Level FlightAware
06:30PM 47.2900 -53.5280 72° East 549 632 35,000  Level FlightAware
06:30PM 47.3210 -53.3880 72° East 551 634 35,000  Level FlightAware
06:31PM 47.3570 -53.2210 72° East 548 631 35,000  Level FlightAware
06:32PM 47.3880 -53.0790 72° East 545 627 35,000  Level FlightAware
06:33PM 47.4210 -52.9250 72° East 547 629 35,000  Level FlightAware
06:33PM 47.4510 -52.7820 73° East 551 634 35,000  Level FlightAware
06:34PM 47.4820 -52.6370 72° East 551 634 35,000  Level FlightAware
06:35PM 47.5150 -52.4770 73° East 552 635 35,000  Level FlightAware
06:35PM 47.5460 -52.3300 73° East 557 641 35,000  Level FlightAware
06:36PM 47.5800 -52.1650 73° East 556 640 35,000  Level FlightAware
06:37PM 47.6090 -52.0210 73° East 554 638 35,000 480 Level FlightAware
06:37PM 47.6390 -51.8740 73° East 556 640 35,700 1,080 Climbing FlightAware
06:38PM 47.6710 -51.7140 73° East 554 638 36,600 900 Climbing FlightAware
06:39PM 47.7000 -51.5680 74° East 561 646 37,000 240 Climbing FlightAware
06:40PM 47.7320 -51.3970 74° East 559 643 37,000  Level FlightAware
06:40PM 47.7460 -51.2980 78° East 557 641 37,000  Level FlightAware
06:41PM 47.7760 -51.1150 76° East 554 638 37,000  Level FlightAware
06:42PM 47.8070 -50.9450 75° East 554 638 37,000  Level FlightAware
06:42PM 47.8330 -50.8030 75° East 554 638 37,000  Level FlightAware
06:43PM 47.8610 -50.6520 74° East 553 636 37,000  Level FlightAware
06:44PM 47.8930 -50.4850 74° East 551 634 37,000  Level FlightAware
06:44PM 47.9110 -50.3910 74° East 551 634 37,000  Level FlightAware
06:45PM 47.9490 -50.1820 75° East 550 633 37,000  Level FlightAware
06:46PM 47.9710 -50.0670 74° East 550 633 37,000  Level FlightAware
06:47PM 48.0010 -49.9110 74° East 550 633 37,000  Level FlightAware
06:47PM 48.0250 -49.7870 74° East 550 633 37,000  Level FlightAware
06:48PM 48.0490 -49.6630 74° East 550 633 37,000  Level FlightAware
06:49PM 48.0720 -49.5380 75° East 550 633 37,000  Level FlightAware
06:49PM 48.0960 -49.4140 74° East 550 633 37,000  Level FlightAware
06:50PM 48.1200 -49.2890 74° East 550 633 37,000  Level FlightAware
06:51PM 48.1500 -49.1330 74° East 550 633 37,000  Level FlightAware
06:51PM 48.1740 -49.0090 74° East 550 633 37,000  Level FlightAware
06:52PM 48.1970 -48.8840 75° East 550 633 37,000  Level FlightAware
06:53PM 48.2210 -48.7590 74° East 550 633 37,000  Level FlightAware
06:54PM 48.2510 -48.6030 74° East 550 633 37,000  Level FlightAware
06:54PM 48.2750 -48.4780 74° East 550 633 37,000  Level FlightAware
06:55PM 48.2990 -48.3530 74° East 550 633 37,000  Level FlightAware
06:56PM 48.4500 -47.9000 74° East 550 633 37,000  Level Gander Center
06:56PM 48.4833 -47.7667 69° East 550 633 37,000  Level Gander Center
06:57PM 48.5333 -47.5500 71° East 550 633 37,000  Level Gander Center
06:58PM 48.5833 -47.3333 71° East 560 644 37,000  Level Gander Center
06:59PM 48.6500 -47.0833 68° East 560 644 37,000  Level Gander Center
07:00PM 48.6833 -46.9000 75° East 560 644 37,000  Level Gander Center
07:01PM 48.7333 -46.6667 72° East 560 644 37,000  Level Gander Center
07:03PM 48.8038 -46.3714 70° East  Level FlightAware Approximate
07:10PM 49.1343 -44.9167 73° East  Level FlightAware Approximate
07:11PM 49.1772 -44.7059 73° East  Level FlightAware Approximate
07:12PM 49.2197 -44.4948 73° East  Level FlightAware Approximate
07:13PM 49.2619 -44.2833 73° East  Level FlightAware Approximate
07:14PM 49.3036 -44.0714 73° East  Level FlightAware Approximate
07:15PM 49.3450 -43.8592 73° East  Level FlightAware Approximate
07:16PM 49.3836 -43.6456 75° East  Level FlightAware Approximate
07:17PM 49.4216 -43.4316 75° East  Level FlightAware Approximate
07:18PM 49.4591 -43.2172 75° East  Level FlightAware Approximate
07:19PM 49.4963 -43.0025 75° East  Level FlightAware Approximate
07:20PM 49.5340 -42.7878 74° East  Level FlightAware Approximate
07:21PM 49.5725 -42.5734 74° East  Level FlightAware Approximate
07:22PM 49.6107 -42.3586 75° East  Level FlightAware Approximate
07:23PM 49.6485 -42.1435 75° East  Level FlightAware Approximate
07:24PM 49.6858 -41.9280 75° East  Level FlightAware Approximate
07:25PM 49.7228 -41.7122 75° East  Level FlightAware Approximate
07:26PM 49.7593 -41.4961 75° East  Level FlightAware Approximate
07:27PM 49.7955 -41.2797 75° East  Level FlightAware Approximate
07:28PM 49.8313 -41.0629 76° East  Level FlightAware Approximate
07:29PM 49.8666 -40.8458 76° East  Level FlightAware Approximate
07:30PM 49.9016 -40.6284 76° East  Level FlightAware Approximate
07:31PM 49.9361 -40.4107 76° East  Level FlightAware Approximate
07:32PM 49.9702 -40.1927 76° East  Level FlightAware Approximate
07:33PM 50.0037 -39.9743 77° East  Level FlightAware Approximate
07:34PM 50.0354 -39.7551 77° East  Level FlightAware Approximate
07:35PM 50.0667 -39.5356 77° East  Level FlightAware Approximate
07:36PM 50.0975 -39.3158 78° East  Level FlightAware Approximate
07:37PM 50.1279 -39.0957 78° East  Level FlightAware Approximate
07:38PM 50.1579 -38.8754 78° East  Level FlightAware Approximate
07:39PM 50.1875 -38.6547 78° East  Level FlightAware Approximate
07:40PM 50.2167 -38.4338 78° East  Level FlightAware Approximate
07:41PM 50.2454 -38.2127 78° East  Level FlightAware Approximate
07:42PM 50.2738 -37.9912 79° East  Level FlightAware Approximate
07:43PM 50.3017 -37.7695 79° East  Level FlightAware Approximate
07:44PM 50.3292 -37.5476 79° East  Level FlightAware Approximate
07:45PM 50.3562 -37.3254 79° East  Level FlightAware Approximate
07:46PM 50.3829 -37.1029 79° East  Level FlightAware Approximate
07:47PM 50.4091 -36.8802 79° East  Level FlightAware Approximate
07:48PM 50.4349 -36.6573 80° East  Level FlightAware Approximate
07:49PM 50.4603 -36.4341 80° East  Level FlightAware Approximate
07:50PM 50.4852 -36.2106 80° East  Level FlightAware Approximate
07:51PM 50.5097 -35.9870 80° East  Level FlightAware Approximate
07:52PM 50.5338 -35.7631 80° East  Level FlightAware Approximate
07:53PM 50.5574 -35.5390 80° East  Level FlightAware Approximate
07:54PM 50.5807 -35.3146 81° East  Level FlightAware Approximate
07:55PM 50.6035 -35.0901 81° East  Level FlightAware Approximate
07:56PM 50.6258 -34.8653 81° East  Level FlightAware Approximate
07:57PM 50.6477 -34.6403 81° East  Level FlightAware Approximate
07:58PM 50.6692 -34.4151 81° East  Level FlightAware Approximate
07:59PM 50.6903 -34.1897 82° East  Level FlightAware Approximate
08:00PM 50.7109 -33.9641 82° East  Level FlightAware Approximate
08:01PM 50.7311 -33.7383 82° East  Level FlightAware Approximate
08:02PM 50.7508 -33.5123 82° East  Level FlightAware Approximate
08:03PM 50.7701 -33.2861 82° East  Level FlightAware Approximate
08:04PM 50.7890 -33.0598 82° East  Level FlightAware Approximate
08:05PM 50.8075 -32.8332 83° East  Level FlightAware Approximate
08:06PM 50.8255 -32.6065 83° East  Level FlightAware Approximate
08:07PM 50.8430 -32.3796 83° East  Level FlightAware Approximate
08:08PM 50.8601 -32.1526 83° East  Level FlightAware Approximate
08:09PM 50.8768 -31.9253 83° East  Level FlightAware Approximate
08:10PM 50.8931 -31.6979 83° East  Level FlightAware Approximate
08:11PM 50.9088 -31.4704 84° East  Level FlightAware Approximate
08:12PM 50.9242 -31.2427 84° East  Level FlightAware Approximate
08:13PM 50.9391 -31.0149 84° East  Level FlightAware Approximate
08:14PM 50.9536 -30.7869 84° East  Level FlightAware Approximate
08:15PM 50.9676 -30.5587 84° East  Level FlightAware Approximate
08:16PM 50.9812 -30.3305 85° East  Level FlightAware Approximate
08:17PM 50.9943 -30.1021 85° East  Level FlightAware Approximate
08:18PM 51.0048 -29.8733 86° East  Level FlightAware Approximate
08:19PM 51.0132 -29.6443 87° East  Level FlightAware Approximate
08:20PM 51.0211 -29.4151 87° East  Level FlightAware Approximate
08:21PM 51.0286 -29.1859 87° East  Level FlightAware Approximate
08:22PM 51.0356 -28.9566 87° East  Level FlightAware Approximate
08:23PM 51.0422 -28.7272 87° East  Level FlightAware Approximate
08:24PM 51.0484 -28.4978 87° East  Level FlightAware Approximate
08:25PM 51.0550 -28.2684 87° East  Level FlightAware Approximate
08:26PM 51.0615 -28.0389 87° East  Level FlightAware Approximate
08:27PM 51.0675 -27.8094 88° East  Level FlightAware Approximate
08:28PM 51.0731 -27.5798 88° East  Level FlightAware Approximate
08:29PM 51.0783 -27.3502 88° East  Level FlightAware Approximate
08:30PM 51.0830 -27.1205 88° East  Level FlightAware Approximate
08:31PM 51.0872 -26.8908 88° East  Level FlightAware Approximate
08:32PM 51.0910 -26.6610 88° East  Level FlightAware Approximate
08:33PM 51.0943 -26.4312 89° East  Level FlightAware Approximate
08:34PM 51.0973 -26.2014 89° East  Level FlightAware Approximate
08:35PM 51.0997 -25.9715 89° East  Level FlightAware Approximate
08:36PM 51.1017 -25.7417 89° East  Level FlightAware Approximate
08:37PM 51.1032 -25.5118 89° East  Level FlightAware Approximate
08:38PM 51.1044 -25.2819 89° East  Level FlightAware Approximate
08:39PM 51.1050 -25.0519 90° East  Level FlightAware Approximate
08:40PM 51.1052 -24.8220 90° East  Level FlightAware Approximate
08:41PM 51.1049 -24.5921 90° East  Level FlightAware Approximate
08:42PM 51.1042 -24.3622 90° East  Level FlightAware Approximate
08:43PM 51.1031 -24.1322 90° East  Level FlightAware Approximate
08:44PM 51.1015 -23.9023 91° East  Level FlightAware Approximate
08:45PM 51.0993 -23.6724 91° East  Level FlightAware Approximate
08:46PM 51.0965 -23.4426 91° East  Level FlightAware Approximate
08:47PM 51.0932 -23.2128 91° East  Level FlightAware Approximate
08:48PM 51.0895 -22.9830 91° East  Level FlightAware Approximate
08:49PM 51.0853 -22.7532 92° East  Level FlightAware Approximate
08:50PM 51.0807 -22.5235 92° East  Level FlightAware Approximate
08:51PM 51.0756 -22.2939 92° East  Level FlightAware Approximate
08:52PM 51.0701 -22.0643 92° East  Level FlightAware Approximate
08:53PM 51.0641 -21.8347 92° East  Level FlightAware Approximate
08:54PM 51.0577 -21.6053 92° East  Level FlightAware Approximate
08:55PM 51.0508 -21.3759 93° East  Level FlightAware Approximate
08:56PM 51.0434 -21.1465 93° East  Level FlightAware Approximate
08:57PM 51.0357 -20.9172 93° East  Level FlightAware Approximate
08:58PM 51.0274 -20.6881 93° East  Level FlightAware Approximate
08:59PM 51.0187 -20.4590 93° East  Level FlightAware Approximate
09:00PM 51.0096 -20.2299 94° East  Level FlightAware Approximate
09:01PM 51.0000 -20.0010 94° East  Level FlightAware Approximate
09:02PM 51.0176 -19.7733 83° East  Level FlightAware Approximate
09:03PM 51.0348 -19.5454 83° East  Level FlightAware Approximate
09:04PM 51.0515 -19.3173 83° East  Level FlightAware Approximate
09:05PM 51.0678 -19.0891 83° East  Level FlightAware Approximate
09:06PM 51.0837 -18.8607 84° East  Level FlightAware Approximate
09:07PM 51.0991 -18.6322 84° East  Level FlightAware Approximate
09:08PM 51.1141 -18.4035 84° East  Level FlightAware Approximate
09:09PM 51.1286 -18.1746 84° East  Level FlightAware Approximate
09:10PM 51.1427 -17.9456 84° East  Level FlightAware Approximate
09:11PM 51.1563 -17.7165 84° East  Level FlightAware Approximate
09:12PM 51.1695 -17.4873 85° East  Level FlightAware Approximate
09:13PM 51.1822 -17.2579 85° East  Level FlightAware Approximate
09:14PM 51.1945 -17.0284 85° East  Level FlightAware Approximate
09:15PM 51.2063 -16.7987 85° East  Level FlightAware Approximate
09:16PM 51.2177 -16.5690 85° East  Level FlightAware Approximate
09:17PM 51.2287 -16.3392 86° East  Level FlightAware Approximate
09:18PM 51.2391 -16.1092 86° East  Level FlightAware Approximate
09:19PM 51.2492 -15.8791 86° East  Level FlightAware Approximate
09:20PM 51.2588 -15.6490 86° East  Level FlightAware Approximate
09:21PM 51.2679 -15.4187 86° East  Level FlightAware Approximate
09:22PM 51.2766 -15.1884 86° East  Level FlightAware Approximate
09:23PM 51.2848 -14.9579 87° East  Level FlightAware Approximate
09:24PM 51.2922 -14.7274 87° East  Level FlightAware Approximate
09:25PM 51.2993 -14.4968 87° East  Level FlightAware Approximate
09:26PM 51.3058 -14.2661 87° East  Level FlightAware Approximate
09:27PM 51.3120 -14.0353 87° East  Level FlightAware Approximate
09:28PM 51.3176 -13.8046 88° East  Level FlightAware Approximate
09:29PM 51.3228 -13.5737 88° East  Level FlightAware Approximate
09:30PM 51.3276 -13.3428 88° East  Level FlightAware Approximate
09:31PM 51.3319 -13.1118 88° East  Level FlightAware Approximate
09:32PM 51.3358 -12.8809 88° East  Level FlightAware Approximate
09:33PM 51.3392 -12.6498 89° East  Level FlightAware Approximate
09:34PM 51.3421 -12.4188 89° East  Level FlightAware Approximate
09:35PM 51.3446 -12.1877 89° East  Level FlightAware Approximate
09:36PM 51.3466 -11.9566 89° East  Level FlightAware Approximate
09:37PM 51.3482 -11.7254 89° East  Level FlightAware Approximate
09:38PM 51.3494 -11.4943 89° East  Level FlightAware Approximate
09:39PM 51.3500 -11.2632 90° East  Level FlightAware Approximate
09:40PM 51.3502 -11.0320 90° East  Level FlightAware Approximate
09:41PM 51.3500 -10.8008 90° East  Level FlightAware Approximate
09:42PM 51.3508 -10.5697 90° East  Level FlightAware Approximate
09:42PM 51.2530 -10.5000 90° East 538 619 37,000  Level FlightAware
09:43PM 51.3512 -10.3385 90° East  Level FlightAware Approximate
09:43PM 51.2590 -10.3450 86° East 538 619 37,000  Level FlightAware
09:44PM 51.2660 -10.1780 86° East 541 623 37,000  Level FlightAware
09:44PM 51.2730 -10.0070 86° East 543 625 37,000  Level FlightAware
09:45PM 51.2800 -9.8380 86° East 545 627 37,000  Level FlightAware
09:46PM 51.2920 -9.5010 87° East 546 628 37,000  Level FlightAware
09:47PM 51.2980 -9.3390 87° East 548 631 37,000  Level FlightAware
09:48PM 51.3040 -9.1550 87° East 550 633 37,000 -1,140 Level FlightAware
09:48PM 51.3085 -8.9874 87° East 488 562 35,500 -1,800 Descending FlightAware UK
09:49PM 51.3111 -8.9144 87° East 488 562 35,400 4,980 Descending FlightAware UK
09:49PM 51.3110 -8.9290 87° East 552 635 37,000  Climbing FlightAware
09:49PM 51.3133 -8.8412 87° East 490 564 35,400 -2,700 Descending FlightAware UK
09:49PM 51.3155 -8.7680 87° East 490 564 35,400 4,320 Level FlightAware UK
09:49PM 51.3160 -8.7650 87° East 552 635 37,000 240 Climbing FlightAware
09:50PM 51.3185 -8.6704 87° East 490 564 35,500 -2,400 Descending FlightAware UK
09:50PM 51.3205 -8.5971 87° East 490 564 35,500 3,600 Level FlightAware UK
09:50PM 51.3210 -8.5860 87° East 553 636 37,000 -300 Climbing FlightAware
09:50PM 51.3229 -8.4994 87° East 488 562 35,400 -2,760 Descending FlightAware UK
09:51PM 51.3247 -8.4260 88° East 488 562 35,400 4,140 Level FlightAware UK
09:51PM 51.3250 -8.4180 88° East 554 638 37,000  Climbing FlightAware
09:51PM 51.3271 -8.3280 88° East 488 562 35,400 -2,640 Descending FlightAware UK
09:51PM 51.3288 -8.2545 88° East 490 564 35,400 4,560 Level FlightAware UK
09:51PM 51.3290 -8.2560 88° East 555 639 37,000 300 Climbing FlightAware
09:52PM 51.3306 -8.1801 88° East 490 564 35,500 -2,940 Descending FlightAware UK
09:52PM 51.3325 -8.1065 88° East 490 564 35,400 3,000 Descending FlightAware UK
09:52PM 51.3340 -8.0690 88° East 556 640 37,000  Climbing FlightAware
09:53PM 51.3354 -7.9836 88° East 488 562 35,400 -2,700 Descending FlightAware UK
09:53PM 51.3369 -7.9098 88° East 490 564 35,400 4,320 Level FlightAware UK
09:53PM 51.3370 -7.9070 88° East 556 640 37,000 240 Climbing FlightAware
09:53PM 51.3390 -7.8113 88° East 492 566 35,500 -2,400 Descending FlightAware UK
09:54PM 51.3405 -7.7375 88° East 488 562 35,500 3,600 Level FlightAware UK
09:54PM 51.3410 -7.7210 88° East 557 641 37,000  Climbing FlightAware
09:54PM 51.3425 -7.6389 88° East 488 562 35,500 -2,580 Descending FlightAware UK
09:54PM 51.3442 -7.5651 88° East 488 562 35,500 3,900 Level FlightAware UK
09:54PM 51.3440 -7.5570 88° East 557 641 37,000  Climbing FlightAware
09:55PM 51.3461 -7.4666 88° East 488 562 35,500 -2,460 Descending FlightAware UK
09:55PM 51.3474 -7.3927 88° East 486 559 35,500 4,260 Level FlightAware UK
09:55PM 51.3470 -7.3950 88° East 558 642 37,000  Climbing FlightAware
09:55PM 51.3487 -7.3187 88° East 488 562 35,500 -2,760 Descending FlightAware UK
09:56PM 51.3500 -7.2447 88° East 490 564 35,500 3,000 Level FlightAware UK
09:56PM 51.3510 -7.2090 88° East 559 643 37,000  Climbing FlightAware
09:56PM 51.3519 -7.1212 88° East 492 566 35,500 -2,520 Descending FlightAware UK
09:56PM 51.3533 -7.0462 88° East 490 564 35,500 4,080 Level FlightAware UK
09:56PM 51.3530 -7.0450 88° East 558 642 37,000 -300 Climbing FlightAware
09:57PM 51.3546 -6.9474 88° East 488 562 35,400 -2,400 Descending FlightAware UK
09:57PM 51.3554 -6.8733 89° East 488 562 35,500 3,840 Climbing FlightAware UK
09:57PM 51.3560 -6.8550 89° East 559 643 37,000  Climbing FlightAware
09:57PM 51.3566 -6.7745 89° East 484 557 35,500 -2,580 Descending FlightAware UK
09:58PM 51.3576 -6.7002 89° East 486 559 35,500 3,900 Level FlightAware UK
09:58PM 51.3580 -6.6920 89° East 562 647 37,000  Climbing FlightAware
09:58PM 51.3589 -6.6010 89° East 484 557 35,500 -2,460 Descending FlightAware UK
09:58PM 51.3597 -6.5263 89° East 488 562 35,500 4,260 Level FlightAware UK
09:58PM 51.3600 -6.5240 89° East 564 649 37,000  Climbing FlightAware
09:59PM 51.3606 -6.4516 89° East 490 564 35,500 -2,760 Descending FlightAware UK
09:59PM 51.3612 -6.3767 89° East 490 564 35,500  Level FlightAware UK
09:59PM 51.3619 -6.3018 89° East 492 566 35,500 3,300 Level FlightAware UK
09:59PM 51.3620 -6.2870 89° East 563 648 37,000  Climbing FlightAware
10:00PM 51.3623 -6.2019 89° East 490 564 35,500 -2,760 Descending FlightAware UK
10:00PM 51.3628 -6.1271 89° East 488 562 35,500 3,600 Level FlightAware UK
10:00PM 51.3630 -6.1110 89° East 561 646 37,000  Climbing FlightAware
10:00PM 51.3633 -6.0269 89° East 488 562 35,500 -2,580 Descending FlightAware UK
10:01PM 51.3641 -5.9526 89° East 488 562 35,500 3,900 Level FlightAware UK
10:01PM 51.3640 -5.9620 89° East 560 644 37,000  Climbing FlightAware
10:01PM 51.3647 -5.8536 89° East 486 559 35,500 -2,460 Descending FlightAware UK
10:01PM 51.3649 -5.7794 90° East 488 562 35,500 3,420 Level FlightAware UK
10:02PM 51.3650 -5.7600 90° East 560 644 37,000  Climbing FlightAware
10:02PM 51.3652 -5.6805 90° East 488 562 35,500 -2,700 Descending FlightAware UK
10:02PM 51.3654 -5.6063 90° East 486 559 35,500 3,720 Level FlightAware UK
10:02PM 51.3660 -5.5960 90° East 560 644 37,000 -300 Climbing FlightAware
10:03PM 51.3655 -5.5074 90° East 486 559 35,400  Descending FlightAware UK
10:03PM 51.3660 -5.4500 90° East 560 644 37,000  Climbing FlightAware
10:03PM 51.3657 -5.4322 90° East 482 555 35,400 -5,100 Descending FlightAware UK
10:03PM 51.3659 -5.3587 90° East 486 559 35,400  Level FlightAware UK
10:03PM 51.3660 -5.2841 90° East 486 559 35,400 3,060 Level FlightAware UK
10:04PM 51.3660 -5.2470 90° East 561 646 37,000 180 Climbing FlightAware
10:04PM 51.3658 -5.1592 90° East 486 559 35,500 -2,580 Descending FlightAware UK
10:04PM 51.3657 -5.0847 90° East 484 557 35,500 4,080 Level FlightAware UK
10:04PM 51.3658 -5.0702 90° East 561 646 37,000 -300 Climbing FlightAware ADS-B
10:05PM 51.3655 -4.9853 90° East 482 555 35,400 -2,520 Descending FlightAware UK
10:05PM 51.3654 -4.9099 90° East 486 559 35,400 3,660 Level FlightAware UK
10:05PM 51.3650 -4.9060 90° East 562 647 37,000 6,360 Climbing FlightAware
10:05PM 51.3652 -4.8459 90° East 562 647 37,000 -3,360 Level FlightAware ADS-B
10:06PM 51.3647 -4.7605 90° East 484 557 35,400  Descending FlightAware UK
10:06PM 51.3650 -4.7350 90° East 562 647 37,000 4,800 Climbing FlightAware
10:06PM 51.3644 -4.6753 91° East 562 647 37,000 -3,840 Level FlightAware ADS-B
10:06PM 51.3638 -4.6105 91° East 480 552 35,400 -2,700 Descending FlightAware UK
10:06PM 51.3633 -4.5368 90° East 480 552 35,500 4,560 Climbing FlightAware UK
10:06PM 51.3635 -4.5218 90° East 564 649 37,000 -360 Climbing FlightAware ADS-B
10:07PM 51.3629 -4.4612 90° East 484 557 35,400 -2,940 Descending FlightAware UK
10:07PM 51.3624 -4.3864 91° East 486 559 35,400 3,960 Level FlightAware UK
10:07PM 51.3630 -4.3970 91° East 565 650 37,000 240 Climbing FlightAware
10:07PM 51.3618 -4.2856 91° East 482 555 35,500 -2,520 Descending FlightAware UK
10:08PM 51.3611 -4.2113 91° East 486 559 35,500 4,080 Level FlightAware UK
10:08PM 51.3610 -4.2160 91° East 567 652 37,000  Climbing FlightAware
10:08PM 51.3601 -4.1101 91° East 484 557 35,500 -2,400 Descending FlightAware UK
10:08PM 51.3592 -4.0349 91° East 488 562 35,500 3,600 Level FlightAware UK
10:09PM 51.3590 -4.0300 91° East 566 651 37,000 3,720 Climbing FlightAware
10:09PM 51.3582 -3.9365 91° East 565 650 37,000 -2,760 Level FlightAware ADS-B
10:09PM 51.3570 -3.8588 91° East 490 564 35,400  Descending FlightAware UK
10:09PM 51.3566 -3.8097 91° East 563 648 37,000  Climbing FlightAware ADS-B
10:10PM 51.3556 -3.7334 91° East 486 559 35,400  Descending FlightAware UK
10:10PM 51.3548 -3.6782 91° East 563 648 37,000 180 Climbing FlightAware ADS-B
10:10PM 51.3538 -3.6082 91° East 478 550 35,500  Descending FlightAware UK
10:10PM 51.3530 -3.5522 91° East 566 651 37,000  Climbing FlightAware ADS-B
10:11PM 51.3519 -3.4851 91° East 480 552 35,500  Descending FlightAware UK
10:11PM 51.3508 -3.4189 91° East 567 652 37,000 -180 Climbing FlightAware ADS-B
10:11PM 51.3494 -3.3339 91° East 484 557 35,400  Descending FlightAware UK
10:11PM 51.3486 -3.2882 91° East 568 654 37,000  Climbing FlightAware ADS-B
10:12PM 51.3473 -3.2097 91° East 484 557 35,400  Descending FlightAware UK
10:12PM 51.3465 -3.1592 91° East 569 655 37,000  Climbing FlightAware ADS-B
10:12PM 51.3449 -3.0821 91° East 488 562 35,400  Descending FlightAware UK
10:12PM 51.3440 -3.0316 91° East 567 652 37,000 180 Climbing FlightAware ADS-B
10:13PM 51.3424 -2.9557 91° East 486 559 35,500  Descending FlightAware UK
10:13PM 51.3414 -2.9016 91° East 567 652 37,000  Climbing FlightAware ADS-B
10:13PM 51.3399 -2.8312 91° East 482 555 35,500  Descending FlightAware UK
10:13PM 51.3390 -2.7930 91° East 565 650 37,000 5,280 Climbing FlightAware
10:14PM 51.3386 -2.7642 91° East 565 650 37,000 -4,200 Level FlightAware ADS-B
10:14PM 51.3367 -2.6788 91° East 480 552 35,400  Descending FlightAware UK
10:14PM 51.3358 -2.6382 91° East 567 652 37,000 180 Climbing FlightAware ADS-B
10:14PM 51.3337 -2.5547 91° East 480 552 35,500  Descending FlightAware UK
10:15PM 51.3328 -2.5103 91° East 567 652 37,000 -240 Climbing FlightAware ADS-B
10:15PM 51.3308 -2.4294 91° East 476 548 35,400  Descending FlightAware UK
10:15PM 51.3297 -2.3845 91° East 567 652 37,000 180 Climbing FlightAware ADS-B
10:15PM 51.3275 -2.3040 91° East 484 557 35,500  Descending FlightAware UK
10:16PM 51.3265 -2.2588 91° East 567 652 37,000 -240 Climbing FlightAware ADS-B
10:16PM 51.3244 -2.1794 91° East 482 555 35,400  Descending FlightAware UK
10:16PM 51.3231 -2.1316 91° East 566 651 37,000  Climbing FlightAware ADS-B
10:16PM 51.3209 -2.0545 91° East 482 555 35,400  Descending FlightAware UK
10:17PM 51.3197 -2.0067 91° East 567 652 37,000  Climbing FlightAware ADS-B
10:17PM 51.3174 -1.9288 91° East 478 550 35,400  Descending FlightAware UK
10:17PM 51.3160 -1.8797 91° East 566 651 37,000 180 Climbing FlightAware ADS-B
10:17PM 51.3136 -1.8031 91° East 478 550 35,500  Descending FlightAware UK
10:18PM 51.3122 -1.7529 91° East 565 650 37,000 -240 Climbing FlightAware ADS-B
10:18PM 51.3099 -1.6785 91° East 478 550 35,400  Descending FlightAware UK
10:18PM 51.3083 -1.6267 91° East 564 649 37,000  Climbing FlightAware ADS-B
10:18PM 51.3059 -1.5540 91° East 478 550 35,400  Descending FlightAware UK
10:19PM 51.3042 -1.5006 91° East 565 650 37,000  Climbing FlightAware ADS-B
10:19PM 51.3018 -1.4296 91° East 482 555 35,400  Descending FlightAware UK
10:19PM 51.3001 -1.3729 91° East 564 649 37,000  Climbing FlightAware ADS-B
10:19PM 51.2977 -1.3037 91° East 478 550 35,400  Descending FlightAware UK
10:20PM 51.2959 -1.2484 91° East 563 648 37,000 180 Climbing FlightAware ADS-B
10:20PM 51.2934 -1.1806 91° East 480 552 35,500  Descending FlightAware UK
10:20PM 51.2914 -1.1240 91° East 561 646 37,000  Climbing FlightAware ADS-B
10:20PM 51.2889 -1.0568 91° East 480 552 35,500  Descending FlightAware UK
10:21PM 51.2869 -0.9998 91° East 559 643 37,000  Climbing FlightAware ADS-B
10:21PM 51.2843 -0.9336 91° East 480 552 35,500  Descending FlightAware UK
10:21PM 51.2823 -0.8756 91° East 558 642 37,000  Climbing FlightAware ADS-B
10:21PM 51.2797 -0.8108 91° East 478 550 35,500  Descending FlightAware UK
10:22PM 51.2775 -0.7504 91° East 557 641 37,000  Climbing FlightAware ADS-B
10:22PM 51.2750 -0.6891 91° East 480 552 35,500  Descending FlightAware UK
10:22PM 51.2726 -0.6274 91° East 555 639 37,000  Climbing FlightAware ADS-B
10:22PM 51.2703 -0.5683 91° East 480 552 35,500  Descending FlightAware UK
10:23PM 51.2676 -0.5042 91° East 553 636 37,000 -180 Climbing FlightAware ADS-B
10:23PM 51.2639 -0.4182 91° East 478 550 35,400  Descending FlightAware UK
10:23PM 51.2624 -0.3806 91° East 551 634 37,000  Climbing FlightAware ADS-B
10:23PM 51.2588 -0.2994 91° East 476 548 35,400  Descending FlightAware UK
10:24PM 51.2572 -0.2586 91° East 550 633 37,000 180 Climbing FlightAware ADS-B
10:24PM 51.2537 -0.1788 91° East 476 548 35,500  Descending FlightAware UK
10:24PM 51.2519 -0.1365 91° East 548 631 37,000  Climbing FlightAware ADS-B
10:24PM 51.2484 -0.0569 91° East 474 545 35,500  Descending FlightAware UK
10:25PM 51.2464 -0.0143 91° East 547 629 37,000  Climbing FlightAware ADS-B
10:25PM 51.2428 0.0636 91° East 476 548 35,500  Descending FlightAware UK
10:25PM 51.2408 0.1082 91° East 548 631 37,000 -240 Climbing FlightAware ADS-B
10:25PM 51.2371 0.1857 91° East 478 550 35,400  Descending FlightAware UK
10:26PM 51.2352 0.2292 91° East 546 628 37,000 180 Climbing FlightAware ADS-B
10:26PM 51.2315 0.3056 91° East 476 548 35,500  Descending FlightAware UK
10:26PM 51.2294 0.3490 91° East 544 626 37,000  Climbing FlightAware ADS-B
10:26PM 51.2257 0.4243 91° East 476 548 35,500  Descending FlightAware UK
10:27PM 51.2234 0.4708 91° East 544 626 37,000  Climbing FlightAware ADS-B
10:27PM 51.2198 0.5445 91° East 474 545 35,500  Descending FlightAware UK
10:27PM 51.2174 0.5913 91° East 543 625 37,000  Climbing FlightAware ADS-B
10:27PM 51.2137 0.6637 91° East 474 545 35,500  Descending FlightAware UK
10:28PM 51.2112 0.7124 91° East 542 624 37,000 -240 Climbing FlightAware ADS-B
10:28PM 51.2075 0.7835 91° East 474 545 35,400  Descending FlightAware UK
10:28PM 51.2049 0.8337 91° East 541 623 37,000  Climbing FlightAware ADS-B
10:28PM 51.2011 0.9038 91° East 474 545 35,400  Descending FlightAware UK
10:29PM 51.1984 0.9555 91° East 540 621 37,000 180 Climbing FlightAware ADS-B
10:29PM 51.1949 1.0207 91° East 474 545 35,500  Descending FlightAware UK
10:29PM 51.1918 1.0764 91° East 540 621 37,000  Climbing FlightAware ADS-B
10:29PM 51.1884 1.1392 91° East 476 548 35,500  Descending FlightAware UK
10:30PM 51.1853 1.1951 91° East 539 620 37,000  Climbing FlightAware ADS-B
10:30PM 51.1817 1.2583 91° East 474 545 35,500  Descending FlightAware UK
10:30PM 51.1783 1.3203 91° East 537 618 37,000  Climbing FlightAware ADS-B
10:31PM 51.1736 1.4021 91° East 472 543 35,500 -2,400 Descending FlightAware UK
10:31PM 51.1697 1.4711 95° East 468 539 35,500 4,500 Level FlightAware UK
10:31PM 51.1691 1.4794 95° East 536 617 37,000  Climbing FlightAware ADS-B
10:31PM 51.1654 1.5430 95° East 470 541 35,500 -2,940 Descending FlightAware UK
10:31PM 51.1613 1.6119 95° East 470 541 35,400 3,000 Descending FlightAware UK
10:32PM 51.1583 1.6615 95° East 535 616 37,000  Climbing FlightAware ADS-B
10:32PM 51.1543 1.7293 95° East 470 541 35,400  Descending FlightAware UK
10:32PM 51.1508 1.7864 95° East 535 616 37,000  Climbing FlightAware ADS-B
10:32PM 51.1472 1.8450 95° East 476 548 35,400  Descending FlightAware UK
10:33PM 51.1434 1.9070 95° East 534 615 37,000 120 Climbing FlightAware ADS-B
10:33PM 51.1383 1.9871 95° East 472 543 35,500  Descending FlightAware UK
10:33PM 51.1354 2.0346 95° East 533 613 37,000  Climbing FlightAware ADS-B
10:34PM 51.1310 2.1045 95° East 474 545 35,500  Descending FlightAware UK
10:34PM 51.1278 2.1543 95° East 533 613 37,000  Climbing FlightAware ADS-B
10:34PM 51.1236 2.2210 95° East 476 548 35,500  Descending FlightAware UK
10:34PM 51.1201 2.2721 95° East 540 621 37,000  Climbing FlightAware ADS-B
10:35PM 51.1146 2.3404 95° East 486 559 35,500  Descending FlightAware UK
10:35PM 51.1138 2.3421 95° East 536 617 37,000 -360 Climbing FlightAware ADS-B
10:35PM 51.1033 2.4076 95° East 490 564 35,400  Descending FlightAware UK
10:35PM 51.0950 2.4584 95° East 531 611 37,000  Climbing FlightAware ADS-B
10:35PM 51.0844 2.5211 95° East 488 562 35,400  Descending FlightAware UK
10:36PM 51.0756 2.5732 95° East 530 610 37,000 180 Climbing FlightAware ADS-B
10:36PM 51.0655 2.6328 95° East 486 559 35,500 -2,940 Descending FlightAware UK
10:36PM 51.0545 2.6997 105° East 486 559 35,400 2,520 Descending FlightAware UK
10:36PM 51.0460 2.7540 104° East 530 610 37,000  Climbing FlightAware
10:36PM 51.0434 2.7681 104° East 486 559 35,400 -5,340 Descending FlightAware UK
10:37PM 51.0321 2.8349 104° East 486 559 35,400  Level FlightAware UK
10:37PM 51.0203 2.9038 105° East 486 559 35,400 3,000 Level FlightAware UK
10:37PM 51.0130 2.9470 105° East 530 610 37,000  Climbing FlightAware
10:38PM 51.0012 3.0161 105° East 484 557 35,400 -2,760 Descending FlightAware UK
10:38PM 50.9898 3.0835 105° East 486 559 35,400 4,140 Level FlightAware UK
10:38PM 50.9880 3.0940 105° East 530 610 37,000  Climbing FlightAware
10:38PM 50.9747 3.1743 105° East 484 557 35,400 -2,640 Descending FlightAware UK
10:39PM 50.9636 3.2411 105° East 486 559 35,400 4,560 Level FlightAware UK
10:39PM 50.9630 3.2430 105° East 530 610 37,000  Climbing FlightAware
10:39PM 50.9523 3.3094 105° East 486 559 35,400 -2,940 Descending FlightAware UK
10:39PM 50.9406 3.3785 105° East 488 562 35,400 3,180 Level FlightAware UK
10:39PM 50.9350 3.4140 105° East 530 610 37,000  Climbing FlightAware
10:40PM 50.9214 3.4916 105° East 488 562 35,400 -2,700 Descending FlightAware UK
10:40PM 50.9100 3.5574 105° East 486 559 35,400 4,560 Level FlightAware UK
10:40PM 50.9100 3.5580 105° East 529 609 37,000  Climbing FlightAware
10:40PM 50.8944 3.6475 105° East 486 559 35,400 -2,520 Descending FlightAware UK
10:41PM 50.8827 3.7152 105° East 486 559 35,400 3,840 Level FlightAware UK
10:41PM 50.8790 3.7340 105° East 527 606 37,000  Climbing FlightAware
10:41PM 50.8673 3.8051 105° East 484 557 35,400 -2,700 Descending FlightAware UK
10:41PM 50.8556 3.8719 105° East 484 557 35,400 4,320 Level FlightAware UK
10:41PM 50.8530 3.8830 105° East 527 606 37,000  Climbing FlightAware
10:42PM 50.8398 3.9607 105° East 484 557 35,400 -2,580 Descending FlightAware UK
10:42PM 50.8280 4.0273 106° East 486 559 35,400 4,800 Level FlightAware UK
10:42PM 50.8280 4.0270 106° East 527 606 37,000  Climbing FlightAware
10:42PM 50.8159 4.0936 106° East 486 559 35,400 -2,880 Descending FlightAware UK
10:43PM 50.8040 4.1600 106° East 486 559 35,400 3,300 Level FlightAware UK
10:43PM 50.7980 4.1960 106° East 525 604 37,000  Climbing FlightAware
10:43PM 50.7842 4.2705 106° East 486 559 35,400 -2,640 Descending FlightAware UK
10:43PM 50.7726 4.3376 105° East 486 559 35,400 4,560 Level FlightAware UK
10:44PM 50.7720 4.3400 105° East 525 604 37,000 -720 Climbing FlightAware
10:44PM 50.7608 4.4031 105° East 492 566 35,200 -3,960 Descending FlightAware UK
10:44PM 50.7488 4.4680 106° East 496 571 34,900 1,980 Descending FlightAware UK
10:44PM 50.7410 4.5090 106° East 530 610 36,200 -1,020 Climbing FlightAware
10:45PM 50.7274 4.5806 106° East 492 566 34,400 -3,540 Descending FlightAware UK
10:45PM 50.7146 4.6460 107° East 492 566 34,100 3,240 Descending FlightAware UK
10:45PM 50.7140 4.6590 107° East 532 612 35,600 1,200 Climbing FlightAware
10:46PM 50.6870 4.8040 106° East 534 615 35,000 -1,020 Descending FlightAware
10:46PM 50.6570 4.9680 106° East 534 615 34,200 -1,080 Descending FlightAware
10:47PM 50.6280 5.1180 107° East 540 621 33,500 -1,320 Descending FlightAware
10:48PM 50.6000 5.2680 106° East 542 624 32,500 -1,500 Descending FlightAware
10:48PM 50.5670 5.4430 106° East 540 621 31,400 -1,320 Descending FlightAware
10:49PM 50.5380 5.5920 107° East 541 623 30,700 -1,140 Descending FlightAware
10:50PM 50.5110 5.7310 107° East 545 627 29,900 -1,140 Descending FlightAware
10:51PM 50.4770 5.9040 107° East 550 633 29,100 -660 Descending FlightAware
10:51PM 50.4480 6.0550 107° East 550 633 29,000 -300 Descending FlightAware
10:52PM 50.4130 6.2280 108° East 540 621 28,700 -720 Descending FlightAware
10:53PM 50.3840 6.3730 107° East 525 604 28,000 -1,200 Descending FlightAware
10:53PM 50.3560 6.5150 107° East 507 583 27,100 -1,980 Descending FlightAware
10:54PM 50.3230 6.6760 108° East 495 570 25,200 -2,520 Descending FlightAware
10:55PM 50.2950 6.8100 108° East 485 558 23,600 -2,580 Descending FlightAware
10:55PM 50.2640 6.9610 108° East 471 542 21,600 -2,520 Descending FlightAware
10:56PM 50.2390 7.0820 108° East 459 528 20,100 -2,400 Descending FlightAware
10:57PM 50.2120 7.2120 108° East 447 514 18,400 -2,520 Descending FlightAware
10:58PM 50.1840 7.3440 108° East 439 505 16,600 -2,520 Descending FlightAware
10:58PM 50.1580 7.4650 108° East 433 498 14,900 -2,400 Descending FlightAware
10:59PM 50.1300 7.5990 108° East 422 486 13,200 -1,380 Descending FlightAware
11:00PM 50.1060 7.7100 109° East 380 437 13,000 -180 Descending FlightAware
11:00PM 50.0860 7.8140 107° East 365 420 13,000  Level FlightAware
11:01PM 50.0640 7.9260 107° East 365 420 13,000  Level FlightAware
11:02PM 50.0440 8.0250 107° East 362 417 13,000  Level FlightAware
11:02PM 50.0210 8.1380 108° East 360 414 13,000  Level FlightAware
11:03PM 50.0020 8.2330 107° East 358 412 13,000  Level FlightAware
11:04PM 49.9810 8.3350 108° East 346 398 13,000 -480 Level FlightAware
11:05PM 49.9600 8.4370 108° East 323 372 12,400 -720 Descending FlightAware
11:05PM 49.9440 8.5240 106° East 307 353 12,000 -720 Descending FlightAware
11:06PM 49.9500 8.5850 81° East 303 349 11,600 -1,080 Descending FlightAware
11:06PM 49.9710 8.6700 69° East 296 341 10,800 -1,140 Descending FlightAware
11:07PM 49.9890 8.7460 70° East 293 337 10,100 -1,140 Descending FlightAware
11:08PM 50.0130 8.8480 70° East 294 338 9,100 -1,140 Descending FlightAware
11:08PM 50.0250 8.8970 69° East 290 334 8,700 -900 Descending FlightAware
11:09PM 50.0380 8.9520 70° East 294 338 8,300 -960 Descending FlightAware
11:09PM 50.0450 8.9810 69° East 291 335 8,000 -480 Descending FlightAware
11:09PM 50.0560 9.0290 70° East 287 330 8,000  Level FlightAware
11:10PM 50.0700 9.0890 70° East 291 335 8,000 -240 Level FlightAware
11:10PM 50.0800 9.1320 70° East 284 327 7,800 -660 Descending FlightAware
11:11PM 50.0940 9.1920 70° East 280 322 7,400 -900 Descending FlightAware
11:11PM 50.1110 9.2460 64° Northeast 278 320 6,900 -1,080 Descending FlightAware
11:12PM 50.1210 9.2580 38° Northeast 286 329 6,700 -960 Descending FlightAware
11:12PM 50.1410 9.2660 14° North 272 313 6,500 -840 Descending FlightAware
11:12PM 50.1720 9.2420 334° Northwest 237 273 6,100 -840 Descending FlightAware
11:13PM 50.1780 9.2190 292° West 227 261 5,900 -660 Descending FlightAware
11:13PM 50.1720 9.1570 261° West 217 250 5,500 -600 Descending FlightAware
11:14PM 50.1660 9.1180 257° West 219 252 5,300 -600 Descending FlightAware
11:14PM 50.1560 9.0750 250° West 219 252 5,000 -660 Descending FlightAware
11:15PM 50.1460 9.0370 248° West 216 249 4,700 -780 Descending FlightAware
11:15PM 50.1370 8.9950 252° West 215 247 4,300 -600 Descending FlightAware
11:16PM 50.1260 8.9490 250° West 211 243 4,100 -540 Descending FlightAware
11:16PM 50.1210 8.9280 250° West 209 241 3,900 -300 Descending FlightAware
11:16PM 50.1130 8.8930 250° West 196 226 3,900  Level FlightAware
11:17PM 50.1040 8.8560 249° West 171 197 3,900 -360 Level FlightAware
11:17PM 50.0970 8.8280 249° West 159 183 3,600 -900 Descending FlightAware
11:18PM 50.0900 8.7970 251° West 153 176 3,100 -900 Descending FlightAware
11:18PM 50.0830 8.7650 251° West 154 177 2,700 -780 Descending FlightAware
11:19PM 50.0760 8.7380 248° West 152 175 2,400 -780 Descending FlightAware
11:19PM 50.0730 8.7240 252° West 147 169 2,200 -840 Descending FlightAware
11:19PM 50.0660 8.6960 249° West 136 157 1,800 -780 Descending FlightAware
11:20PM 50.0610 8.6720 252° West 136 157 1,500 -660 Descending FlightAware
11:20PM 50.0540 8.6450 248° West 141 162 1,200 -780 Descending FlightAware
11:21PM 50.0480 8.6210 249° West 145 167 800 -600 Descending FlightAware
11:21PM 50.0390 8.5810 251° West 148 170 600 -300 Descending FlightAware
11:24PM 50.0167 8.5667 111° Southeast  Level FlightAware Approximate
11:25PM 50.0264 8.5431 111° Southeast  Level Estimated